sensor_id;sensor_type;location;lat;lon;timestamp;pressure;altitude;pressure_sealevel;temperature;humidity
77005;BME280;67261;53.132;18.006;2023-07-30T00:02:02;100229.89;;;18.25;79.34
77005;BME280;67261;53.132;18.006;2023-07-30T00:04:28;100237.23;;;18.25;79.50
77005;BME280;67261;53.132;18.006;2023-07-30T00:06:54;100238.16;;;18.25;79.28
77005;BME280;67261;53.132;18.006;2023-07-30T00:09:20;100241.95;;;18.25;79.48
77005;BME280;67261;53.132;18.006;2023-07-30T00:11:47;100241.87;;;18.24;79.36
77005;BME280;67261;53.132;18.006;2023-07-30T00:14:13;100247.52;;;18.22;79.50
77005;BME280;67261;53.132;18.006;2023-07-30T00:16:39;100246.94;;;18.21;79.30
77005;BME280;67261;53.132;18.006;2023-07-30T00:19:05;100247.02;;;18.19;79.40
77005;BME280;67261;53.132;18.006;2023-07-30T00:21:32;100247.75;;;18.18;79.46
77005;BME280;67261;53.132;18.006;2023-07-30T00:23:58;100250.39;;;18.18;79.51
77005;BME280;67261;53.132;18.006;2023-07-30T00:26:25;100252.77;;;18.19;79.53
77005;BME280;67261;53.132;18.006;2023-07-30T00:28:52;100255.63;;;18.19;79.62
77005;BME280;67261;53.132;18.006;2023-07-30T00:31:18;100254.46;;;18.19;79.44
77005;BME280;67261;53.132;18.006;2023-07-30T00:33:44;100253.41;;;18.19;79.55
77005;BME280;67261;53.132;18.006;2023-07-30T00:36:10;100258.61;;;18.19;79.61
77005;BME280;67261;53.132;18.006;2023-07-30T00:38:38;100256.09;;;18.19;79.47
77005;BME280;67261;53.132;18.006;2023-07-30T00:41:04;100263.55;;;18.19;79.46
77005;BME280;67261;53.132;18.006;2023-07-30T00:43:30;100261.41;;;18.19;79.60
77005;BME280;67261;53.132;18.006;2023-07-30T00:45:57;100264.50;;;18.20;79.63
77005;BME280;67261;53.132;18.006;2023-07-30T00:48:23;100267.55;;;18.21;79.54
77005;BME280;67261;53.132;18.006;2023-07-30T00:50:50;100267.92;;;18.22;79.49
77005;BME280;67261;53.132;18.006;2023-07-30T00:53:16;100267.89;;;18.21;79.50
77005;BME280;67261;53.132;18.006;2023-07-30T00:55:44;100272.14;;;18.20;79.56
77005;BME280;67261;53.132;18.006;2023-07-30T00:58:11;100280.37;;;18.20;79.54
77005;BME280;67261;53.132;18.006;2023-07-30T01:00:39;100278.23;;;18.19;79.44
77005;BME280;67261;53.132;18.006;2023-07-30T01:03:06;100275.27;;;18.19;79.48
77005;BME280;67261;53.132;18.006;2023-07-30T01:05:33;100275.30;;;18.18;79.66
77005;BME280;67261;53.132;18.006;2023-07-30T01:07:59;100269.06;;;18.18;79.47
77005;BME280;67261;53.132;18.006;2023-07-30T01:10:25;100270.35;;;18.18;79.66
77005;BME280;67261;53.132;18.006;2023-07-30T01:12:52;100272.79;;;18.17;79.62
77005;BME280;67261;53.132;18.006;2023-07-30T01:15:19;100270.80;;;18.17;79.68
77005;BME280;67261;53.132;18.006;2023-07-30T01:17:45;100272.98;;;18.18;79.68
77005;BME280;67261;53.132;18.006;2023-07-30T01:20:11;100277.66;;;18.18;79.76
77005;BME280;67261;53.132;18.006;2023-07-30T01:22:38;100278.82;;;18.19;79.87
77005;BME280;67261;53.132;18.006;2023-07-30T01:25:04;100278.84;;;18.20;79.84
77005;BME280;67261;53.132;18.006;2023-07-30T01:27:35;100275.73;;;18.20;79.83
77005;BME280;67261;53.132;18.006;2023-07-30T01:30:24;100277.93;;;18.20;79.84
77005;BME280;67261;53.132;18.006;2023-07-30T01:32:52;100269.67;;;18.20;79.78
77005;BME280;67261;53.132;18.006;2023-07-30T01:35:21;100269.71;;;18.20;79.74
77005;BME280;67261;53.132;18.006;2023-07-30T01:37:49;100270.34;;;18.19;79.97
77005;BME280;67261;53.132;18.006;2023-07-30T01:40:16;100270.25;;;18.20;79.84
77005;BME280;67261;53.132;18.006;2023-07-30T01:42:43;100272.15;;;18.20;79.96
77005;BME280;67261;53.132;18.006;2023-07-30T01:45:09;100269.30;;;18.19;79.94
77005;BME280;67261;53.132;18.006;2023-07-30T01:47:36;100273.28;;;18.17;80.07
77005;BME280;67261;53.132;18.006;2023-07-30T01:50:02;100268.04;;;18.16;80.03
77005;BME280;67261;53.132;18.006;2023-07-30T01:52:29;100267.20;;;18.16;80.01
77005;BME280;67261;53.132;18.006;2023-07-30T01:54:55;100267.41;;;18.16;80.05
77005;BME280;67261;53.132;18.006;2023-07-30T01:57:23;100271.18;;;18.16;80.09
77005;BME280;67261;53.132;18.006;2023-07-30T01:59:49;100269.27;;;18.15;79.89
77005;BME280;67261;53.132;18.006;2023-07-30T02:02:16;100272.55;;;18.15;80.10
77005;BME280;67261;53.132;18.006;2023-07-30T02:04:42;100274.44;;;18.15;80.06
77005;BME280;67261;53.132;18.006;2023-07-30T02:07:08;100271.31;;;18.15;80.12
77005;BME280;67261;53.132;18.006;2023-07-30T02:09:34;100275.45;;;18.13;80.11
77005;BME280;67261;53.132;18.006;2023-07-30T02:12:01;100276.40;;;18.13;80.17
77005;BME280;67261;53.132;18.006;2023-07-30T02:14:27;100281.07;;;18.13;80.17
77005;BME280;67261;53.132;18.006;2023-07-30T02:16:59;100281.85;;;18.14;80.09
77005;BME280;67261;53.132;18.006;2023-07-30T02:19:25;100286.44;;;18.14;80.11
77005;BME280;67261;53.132;18.006;2023-07-30T02:21:52;100285.83;;;18.15;80.11
77005;BME280;67261;53.132;18.006;2023-07-30T02:24:18;100287.58;;;18.16;80.05
77005;BME280;67261;53.132;18.006;2023-07-30T02:26:44;100290.64;;;18.17;80.20
77005;BME280;67261;53.132;18.006;2023-07-30T02:29:10;100298.27;;;18.19;80.21
77005;BME280;67261;53.132;18.006;2023-07-30T02:31:37;100297.19;;;18.19;80.25
77005;BME280;67261;53.132;18.006;2023-07-30T02:34:03;100293.80;;;18.19;80.16
77005;BME280;67261;53.132;18.006;2023-07-30T02:36:29;100289.11;;;18.18;80.14
77005;BME280;67261;53.132;18.006;2023-07-30T02:38:55;100288.73;;;18.18;80.36
77005;BME280;67261;53.132;18.006;2023-07-30T02:41:22;100294.23;;;18.17;80.45
77005;BME280;67261;53.132;18.006;2023-07-30T02:43:48;100295.89;;;18.18;80.43
77005;BME280;67261;53.132;18.006;2023-07-30T02:46:14;100292.52;;;18.19;80.56
77005;BME280;67261;53.132;18.006;2023-07-30T02:48:40;100295.17;;;18.20;80.39
77005;BME280;67261;53.132;18.006;2023-07-30T02:51:07;100291.98;;;18.19;80.52
77005;BME280;67261;53.132;18.006;2023-07-30T02:53:33;100296.73;;;18.20;80.56
77005;BME280;67261;53.132;18.006;2023-07-30T02:55:59;100298.55;;;18.21;80.52
77005;BME280;67261;53.132;18.006;2023-07-30T02:58:25;100294.71;;;18.21;80.41
77005;BME280;67261;53.132;18.006;2023-07-30T03:00:51;100297.92;;;18.23;80.43
77005;BME280;67261;53.132;18.006;2023-07-30T03:03:18;100296.68;;;18.23;80.55
77005;BME280;67261;53.132;18.006;2023-07-30T03:05:44;100296.89;;;18.23;80.56
77005;BME280;67261;53.132;18.006;2023-07-30T03:08:10;100293.08;;;18.23;80.43
77005;BME280;67261;53.132;18.006;2023-07-30T03:10:36;100293.84;;;18.21;80.60
77005;BME280;67261;53.132;18.006;2023-07-30T03:13:03;100294.74;;;18.23;80.60
77005;BME280;67261;53.132;18.006;2023-07-30T03:15:29;100292.45;;;18.23;80.67
77005;BME280;67261;53.132;18.006;2023-07-30T03:17:55;100293.25;;;18.24;80.65
77005;BME280;67261;53.132;18.006;2023-07-30T03:20:21;100288.83;;;18.25;80.74
77005;BME280;67261;53.132;18.006;2023-07-30T03:22:48;100286.05;;;18.26;80.68
77005;BME280;67261;53.132;18.006;2023-07-30T03:25:14;100294.35;;;18.29;80.70
77005;BME280;67261;53.132;18.006;2023-07-30T03:27:40;100300.00;;;18.31;80.60
77005;BME280;67261;53.132;18.006;2023-07-30T03:30:06;100300.90;;;18.32;80.61
77005;BME280;67261;53.132;18.006;2023-07-30T03:32:33;100303.45;;;18.34;80.52
77005;BME280;67261;53.132;18.006;2023-07-30T03:34:59;100296.79;;;18.34;80.59
77005;BME280;67261;53.132;18.006;2023-07-30T03:37:25;100297.15;;;18.37;80.64
77005;BME280;67261;53.132;18.006;2023-07-30T03:39:53;100298.44;;;18.38;80.57
77005;BME280;67261;53.132;18.006;2023-07-30T03:42:19;100299.91;;;18.39;80.69
77005;BME280;67261;53.132;18.006;2023-07-30T03:44:47;100298.46;;;18.40;80.55
77005;BME280;67261;53.132;18.006;2023-07-30T03:47:14;100296.52;;;18.41;80.59
77005;BME280;67261;53.132;18.006;2023-07-30T03:49:40;100292.27;;;18.43;80.49
77005;BME280;67261;53.132;18.006;2023-07-30T03:52:07;100294.30;;;18.46;80.67
77005;BME280;67261;53.132;18.006;2023-07-30T03:54:34;100294.82;;;18.48;80.60
77005;BME280;67261;53.132;18.006;2023-07-30T03:57:00;100293.40;;;18.49;80.63
77005;BME280;67261;53.132;18.006;2023-07-30T03:59:27;100299.64;;;18.51;80.60
77005;BME280;67261;53.132;18.006;2023-07-30T04:01:55;100304.30;;;18.52;80.61
77005;BME280;67261;53.132;18.006;2023-07-30T04:04:21;100314.36;;;18.55;80.62
77005;BME280;67261;53.132;18.006;2023-07-30T04:06:47;100317.30;;;18.57;80.79
77005;BME280;67261;53.132;18.006;2023-07-30T04:09:14;100318.77;;;18.58;80.66
77005;BME280;67261;53.132;18.006;2023-07-30T04:11:41;100316.70;;;18.60;80.69
77005;BME280;67261;53.132;18.006;2023-07-30T04:14:07;100313.15;;;18.60;80.76
77005;BME280;67261;53.132;18.006;2023-07-30T04:16:35;100308.39;;;18.60;80.85
77005;BME280;67261;53.132;18.006;2023-07-30T04:19:01;100312.13;;;18.63;80.88
77005;BME280;67261;53.132;18.006;2023-07-30T04:21:28;100315.03;;;18.64;80.91
77005;BME280;67261;53.132;18.006;2023-07-30T04:23:54;100314.28;;;18.63;80.91
77005;BME280;67261;53.132;18.006;2023-07-30T04:26:20;100317.53;;;18.65;80.82
77005;BME280;67261;53.132;18.006;2023-07-30T04:28:47;100319.05;;;18.68;80.79
77005;BME280;67261;53.132;18.006;2023-07-30T04:31:13;100317.48;;;18.72;80.94
77005;BME280;67261;53.132;18.006;2023-07-30T04:33:40;100317.77;;;18.75;80.88
77005;BME280;67261;53.132;18.006;2023-07-30T04:36:07;100325.92;;;18.78;80.85
77005;BME280;67261;53.132;18.006;2023-07-30T04:38:34;100332.58;;;18.81;80.91
77005;BME280;67261;53.132;18.006;2023-07-30T04:41:00;100336.83;;;18.82;80.80
77005;BME280;67261;53.132;18.006;2023-07-30T04:43:28;100342.70;;;18.84;80.89
77005;BME280;67261;53.132;18.006;2023-07-30T04:45:57;100344.55;;;18.86;80.93
77005;BME280;67261;53.132;18.006;2023-07-30T04:48:23;100345.55;;;18.89;80.81
77005;BME280;67261;53.132;18.006;2023-07-30T04:50:50;100346.41;;;18.91;80.79
77005;BME280;67261;53.132;18.006;2023-07-30T04:53:16;100347.75;;;18.94;80.90
77005;BME280;67261;53.132;18.006;2023-07-30T04:55:44;100350.94;;;18.96;80.85
77005;BME280;67261;53.132;18.006;2023-07-30T04:58:11;100350.34;;;18.98;80.98
77005;BME280;67261;53.132;18.006;2023-07-30T05:00:38;100354.10;;;18.99;80.95
77005;BME280;67261;53.132;18.006;2023-07-30T05:03:04;100354.90;;;19.02;80.84
77005;BME280;67261;53.132;18.006;2023-07-30T05:05:30;100354.59;;;19.06;81.04
77005;BME280;67261;53.132;18.006;2023-07-30T05:07:57;100350.45;;;19.11;80.88
77005;BME280;67261;53.132;18.006;2023-07-30T05:10:23;100353.08;;;19.19;80.61
77005;BME280;67261;53.132;18.006;2023-07-30T05:12:49;100350.21;;;19.38;80.29
77005;BME280;67261;53.132;18.006;2023-07-30T05:15:16;100347.77;;;19.63;80.00
77005;BME280;67261;53.132;18.006;2023-07-30T05:17:43;100343.09;;;19.84;79.72
77005;BME280;67261;53.132;18.006;2023-07-30T05:20:09;100348.91;;;20.04;79.49
77005;BME280;67261;53.132;18.006;2023-07-30T05:22:36;100350.77;;;20.14;79.34
77005;BME280;67261;53.132;18.006;2023-07-30T05:25:02;100351.25;;;20.17;79.21
77005;BME280;67261;53.132;18.006;2023-07-30T05:27:30;100352.27;;;20.18;79.14
77005;BME280;67261;53.132;18.006;2023-07-30T05:29:57;100353.84;;;20.19;78.92
77005;BME280;67261;53.132;18.006;2023-07-30T05:32:25;100356.30;;;20.22;78.87
77005;BME280;67261;53.132;18.006;2023-07-30T05:34:51;100355.13;;;20.23;78.93
77005;BME280;67261;53.132;18.006;2023-07-30T05:37:17;100358.34;;;20.24;78.67
77005;BME280;67261;53.132;18.006;2023-07-30T05:39:43;100355.49;;;20.26;78.50
77005;BME280;67261;53.132;18.006;2023-07-30T05:42:10;100360.91;;;20.29;78.81
77005;BME280;67261;53.132;18.006;2023-07-30T05:44:36;100361.21;;;20.30;78.53
77005;BME280;67261;53.132;18.006;2023-07-30T05:47:03;100362.46;;;20.33;78.49
77005;BME280;67261;53.132;18.006;2023-07-30T05:49:29;100365.10;;;20.40;78.49
77005;BME280;67261;53.132;18.006;2023-07-30T05:51:56;100363.38;;;20.52;78.23
77005;BME280;67261;53.132;18.006;2023-07-30T05:54:22;100363.39;;;20.64;78.09
77005;BME280;67261;53.132;18.006;2023-07-30T05:56:48;100366.38;;;20.85;77.78
77005;BME280;67261;53.132;18.006;2023-07-30T05:59:14;100365.81;;;21.12;77.30
77005;BME280;67261;53.132;18.006;2023-07-30T06:01:41;100365.92;;;21.24;76.98
77005;BME280;67261;53.132;18.006;2023-07-30T06:04:07;100370.33;;;21.35;76.82
77005;BME280;67261;53.132;18.006;2023-07-30T06:06:33;100374.46;;;21.42;76.73
77005;BME280;67261;53.132;18.006;2023-07-30T06:08:59;100371.99;;;21.45;76.53
77005;BME280;67261;53.132;18.006;2023-07-30T06:11:25;100371.98;;;21.48;76.29
77005;BME280;67261;53.132;18.006;2023-07-30T06:13:53;100376.09;;;21.51;76.21
77005;BME280;67261;53.132;18.006;2023-07-30T06:16:20;100373.45;;;21.52;76.04
77005;BME280;67261;53.132;18.006;2023-07-30T06:18:47;100377.03;;;21.54;75.84
77005;BME280;67261;53.132;18.006;2023-07-30T06:21:13;100375.34;;;21.54;75.83
77005;BME280;67261;53.132;18.006;2023-07-30T06:23:39;100381.55;;;21.53;75.90
77005;BME280;67261;53.132;18.006;2023-07-30T06:26:06;100386.92;;;21.52;75.78
77005;BME280;67261;53.132;18.006;2023-07-30T06:28:32;100387.06;;;21.49;75.64
77005;BME280;67261;53.132;18.006;2023-07-30T06:31:02;100387.67;;;21.44;75.31
77005;BME280;67261;53.132;18.006;2023-07-30T06:33:28;100386.70;;;21.45;75.26
77005;BME280;67261;53.132;18.006;2023-07-30T06:35:55;100382.58;;;21.53;75.31
77005;BME280;67261;53.132;18.006;2023-07-30T06:38:22;100385.77;;;21.65;74.80
77005;BME280;67261;53.132;18.006;2023-07-30T06:40:48;100386.34;;;21.73;74.82
77005;BME280;67261;53.132;18.006;2023-07-30T06:43:14;100382.56;;;21.87;74.44
77005;BME280;67261;53.132;18.006;2023-07-30T06:45:41;100379.20;;;22.17;73.84
77005;BME280;67261;53.132;18.006;2023-07-30T06:48:07;100379.02;;;22.42;73.38
77005;BME280;67261;53.132;18.006;2023-07-30T06:50:33;100379.67;;;22.77;72.84
77005;BME280;67261;53.132;18.006;2023-07-30T06:53:03;100380.34;;;23.74;70.95
77005;BME280;67261;53.132;18.006;2023-07-30T06:55:30;100383.52;;;24.24;70.06
77005;BME280;67261;53.132;18.006;2023-07-30T06:57:56;100379.86;;;24.51;69.21
77005;BME280;67261;53.132;18.006;2023-07-30T07:00:22;100376.70;;;24.93;68.32
77005;BME280;67261;53.132;18.006;2023-07-30T07:02:48;100374.52;;;25.89;66.16
77005;BME280;67261;53.132;18.006;2023-07-30T07:05:15;100373.49;;;27.46;63.47
77005;BME280;67261;53.132;18.006;2023-07-30T07:07:41;100374.14;;;27.94;63.03
77005;BME280;67261;53.132;18.006;2023-07-30T07:10:08;100376.80;;;28.10;62.15
77005;BME280;67261;53.132;18.006;2023-07-30T07:12:37;100373.57;;;28.09;61.25
77005;BME280;67261;53.132;18.006;2023-07-30T07:15:07;100371.73;;;28.00;60.95
77005;BME280;67261;53.132;18.006;2023-07-30T07:17:33;100367.64;;;28.49;59.84
77005;BME280;67261;53.132;18.006;2023-07-30T07:19:59;100364.38;;;29.63;57.83
77005;BME280;67261;53.132;18.006;2023-07-30T07:22:26;100368.60;;;30.60;56.31
77005;BME280;67261;53.132;18.006;2023-07-30T07:24:52;100369.84;;;31.43;54.51
77005;BME280;67261;53.132;18.006;2023-07-30T07:27:18;100373.06;;;32.11;52.64
77005;BME280;67261;53.132;18.006;2023-07-30T07:29:45;100375.29;;;31.71;53.09
77005;BME280;67261;53.132;18.006;2023-07-30T07:32:12;100379.98;;;31.17;53.17
77005;BME280;67261;53.132;18.006;2023-07-30T07:34:38;100383.77;;;30.52;53.01
77005;BME280;67261;53.132;18.006;2023-07-30T07:37:05;100388.52;;;30.58;52.10
77005;BME280;67261;53.132;18.006;2023-07-30T07:39:32;100382.23;;;30.74;51.42
77005;BME280;67261;53.132;18.006;2023-07-30T07:41:59;100380.45;;;30.44;51.63
77005;BME280;67261;53.132;18.006;2023-07-30T07:44:26;100380.84;;;30.36;51.49
77005;BME280;67261;53.132;18.006;2023-07-30T07:46:52;100380.08;;;30.66;50.55
77005;BME280;67261;53.132;18.006;2023-07-30T07:49:19;100381.70;;;31.68;48.91
77005;BME280;67261;53.132;18.006;2023-07-30T07:51:45;100387.31;;;31.53;49.29
77005;BME280;67261;53.132;18.006;2023-07-30T07:54:12;100387.08;;;31.08;49.41
77005;BME280;67261;53.132;18.006;2023-07-30T07:56:39;100389.54;;;30.77;49.33
77005;BME280;67261;53.132;18.006;2023-07-30T07:59:05;100386.24;;;30.24;49.62
77005;BME280;67261;53.132;18.006;2023-07-30T08:01:31;100388.92;;;29.76;49.85
77005;BME280;67261;53.132;18.006;2023-07-30T08:03:57;100391.08;;;29.20;50.49
77005;BME280;67261;53.132;18.006;2023-07-30T08:06:24;100393.98;;;28.62;51.14
77005;BME280;67261;53.132;18.006;2023-07-30T08:08:50;100399.05;;;28.34;51.20
77005;BME280;67261;53.132;18.006;2023-07-30T08:11:17;100395.83;;;28.48;50.82
77005;BME280;67261;53.132;18.006;2023-07-30T08:13:44;100401.08;;;28.61;50.88
77005;BME280;67261;53.132;18.006;2023-07-30T08:16:12;100407.58;;;28.47;50.98
77005;BME280;67261;53.132;18.006;2023-07-30T08:18:38;100408.72;;;28.32;51.34
77005;BME280;67261;53.132;18.006;2023-07-30T08:21:04;100411.55;;;28.14;51.42
77005;BME280;67261;53.132;18.006;2023-07-30T08:23:31;100413.59;;;27.93;51.23
77005;BME280;67261;53.132;18.006;2023-07-30T08:25:57;100414.04;;;27.94;51.23
77005;BME280;67261;53.132;18.006;2023-07-30T08:28:23;100416.23;;;28.19;51.02
77005;BME280;67261;53.132;18.006;2023-07-30T08:30:50;100419.81;;;28.14;50.91
77005;BME280;67261;53.132;18.006;2023-07-30T08:33:16;100422.23;;;27.93;50.94
77005;BME280;67261;53.132;18.006;2023-07-30T08:35:42;100427.00;;;27.65;51.19
77005;BME280;67261;53.132;18.006;2023-07-30T08:38:09;100429.60;;;27.46;51.23
77005;BME280;67261;53.132;18.006;2023-07-30T08:40:35;100425.77;;;27.35;51.33
77005;BME280;67261;53.132;18.006;2023-07-30T08:43:02;100426.17;;;27.21;51.20
77005;BME280;67261;53.132;18.006;2023-07-30T08:45:29;100433.36;;;27.09;51.43
77005;BME280;67261;53.132;18.006;2023-07-30T08:47:56;100431.52;;;26.93;51.65
77005;BME280;67261;53.132;18.006;2023-07-30T08:50:22;100428.50;;;26.78;52.05
77005;BME280;67261;53.132;18.006;2023-07-30T08:52:49;100429.48;;;26.67;52.29
77005;BME280;67261;53.132;18.006;2023-07-30T08:55:16;100431.63;;;26.57;52.35
77005;BME280;67261;53.132;18.006;2023-07-30T08:57:44;100427.52;;;26.62;52.41
77005;BME280;67261;53.132;18.006;2023-07-30T09:00:15;100423.73;;;26.72;52.32
77005;BME280;67261;53.132;18.006;2023-07-30T09:02:46;100425.96;;;26.95;52.06
77005;BME280;67261;53.132;18.006;2023-07-30T09:05:13;100422.19;;;27.14;51.89
77005;BME280;67261;53.132;18.006;2023-07-30T09:07:39;100425.11;;;27.10;51.85
77005;BME280;67261;53.132;18.006;2023-07-30T09:10:06;100427.47;;;27.10;52.15
77005;BME280;67261;53.132;18.006;2023-07-30T09:12:33;100430.43;;;27.22;51.83
77005;BME280;67261;53.132;18.006;2023-07-30T09:15:02;100431.98;;;27.31;51.82
77005;BME280;67261;53.132;18.006;2023-07-30T09:17:29;100438.41;;;27.42;51.38
77005;BME280;67261;53.132;18.006;2023-07-30T09:19:55;100442.16;;;27.29;51.06
77005;BME280;67261;53.132;18.006;2023-07-30T09:22:26;100442.30;;;27.12;51.12
77005;BME280;67261;53.132;18.006;2023-07-30T09:24:57;100441.58;;;26.92;50.88
77005;BME280;67261;53.132;18.006;2023-07-30T09:27:25;100441.67;;;26.77;51.07
77005;BME280;67261;53.132;18.006;2023-07-30T09:29:54;100440.77;;;26.71;51.29
77005;BME280;67261;53.132;18.006;2023-07-30T09:32:29;100439.25;;;26.69;51.25
77005;BME280;67261;53.132;18.006;2023-07-30T09:35:03;100443.64;;;26.66;51.42
77005;BME280;67261;53.132;18.006;2023-07-30T09:37:31;100443.63;;;26.60;51.46
77005;BME280;67261;53.132;18.006;2023-07-30T09:39:57;100448.75;;;26.62;51.73
77005;BME280;67261;53.132;18.006;2023-07-30T09:42:27;100445.61;;;26.78;51.94
77005;BME280;67261;53.132;18.006;2023-07-30T09:44:58;100446.42;;;26.81;51.83
77005;BME280;67261;53.132;18.006;2023-07-30T09:47:26;100444.58;;;26.89;51.60
77005;BME280;67261;53.132;18.006;2023-07-30T09:49:53;100448.73;;;26.93;51.48
77005;BME280;67261;53.132;18.006;2023-07-30T09:52:22;100451.36;;;26.96;51.20
77005;BME280;67261;53.132;18.006;2023-07-30T09:54:49;100451.27;;;27.06;51.11
77005;BME280;67261;53.132;18.006;2023-07-30T09:57:20;100449.48;;;27.13;51.15
77005;BME280;67261;53.132;18.006;2023-07-30T09:59:47;100441.40;;;27.34;50.64
77005;BME280;67261;53.132;18.006;2023-07-30T10:02:13;100438.16;;;27.50;50.38
77005;BME280;67261;53.132;18.006;2023-07-30T10:04:43;100437.73;;;27.60;50.31
77005;BME280;67261;53.132;18.006;2023-07-30T10:07:13;100438.23;;;27.60;50.60
77005;BME280;67261;53.132;18.006;2023-07-30T10:09:43;100437.08;;;27.57;50.62
77005;BME280;67261;53.132;18.006;2023-07-30T10:12:16;100439.98;;;27.49;50.43
77005;BME280;67261;53.132;18.006;2023-07-30T10:14:44;100439.67;;;27.42;50.46
77005;BME280;67261;53.132;18.006;2023-07-30T10:17:11;100442.29;;;27.44;50.80
77005;BME280;67261;53.132;18.006;2023-07-30T10:19:38;100440.38;;;27.42;50.95
77005;BME280;67261;53.132;18.006;2023-07-30T10:24:38;100441.05;;;27.22;51.12
77005;BME280;67261;53.132;18.006;2023-07-30T10:27:08;100436.22;;;27.25;50.77
77005;BME280;67261;53.132;18.006;2023-07-30T10:29:36;100440.64;;;27.27;50.87
77005;BME280;67261;53.132;18.006;2023-07-30T10:32:04;100434.92;;;27.37;50.80
77005;BME280;67261;53.132;18.006;2023-07-30T10:34:45;100437.73;;;27.47;50.72
77005;BME280;67261;53.132;18.006;2023-07-30T10:37:17;100433.16;;;27.64;50.30
77005;BME280;67261;53.132;18.006;2023-07-30T10:39:48;100437.95;;;27.80;50.41
77005;BME280;67261;53.132;18.006;2023-07-30T10:42:14;100436.41;;;27.93;50.17
77005;BME280;67261;53.132;18.006;2023-07-30T10:44:44;100432.64;;;27.97;49.93
77005;BME280;67261;53.132;18.006;2023-07-30T10:47:11;100437.27;;;28.01;49.89
77005;BME280;67261;53.132;18.006;2023-07-30T10:49:39;100432.95;;;28.06;49.73
77005;BME280;67261;53.132;18.006;2023-07-30T10:52:16;100433.35;;;28.00;49.62
77005;BME280;67261;53.132;18.006;2023-07-30T10:54:43;100433.36;;;27.87;48.85
77005;BME280;67261;53.132;18.006;2023-07-30T10:57:09;100435.44;;;27.82;49.29
77005;BME280;67261;53.132;18.006;2023-07-30T10:59:37;100436.79;;;27.92;49.36
77005;BME280;67261;53.132;18.006;2023-07-30T11:02:04;100436.56;;;28.01;49.18
77005;BME280;67261;53.132;18.006;2023-07-30T11:04:34;100433.13;;;28.09;48.90
77005;BME280;67261;53.132;18.006;2023-07-30T11:07:00;100429.40;;;28.17;48.61
77005;BME280;67261;53.132;18.006;2023-07-30T11:09:29;100427.74;;;28.25;48.36
77005;BME280;67261;53.132;18.006;2023-07-30T11:11:56;100430.33;;;28.38;47.83
77005;BME280;67261;53.132;18.006;2023-07-30T11:14:23;100426.35;;;28.50;47.85
77005;BME280;67261;53.132;18.006;2023-07-30T11:16:56;100420.21;;;28.56;47.44
77005;BME280;67261;53.132;18.006;2023-07-30T11:19:28;100420.14;;;28.48;47.65
77005;BME280;67261;53.132;18.006;2023-07-30T11:21:57;100416.34;;;28.41;47.10
77005;BME280;67261;53.132;18.006;2023-07-30T11:24:36;100417.66;;;28.37;47.43
77005;BME280;67261;53.132;18.006;2023-07-30T11:27:03;100415.30;;;28.41;47.12
77005;BME280;67261;53.132;18.006;2023-07-30T11:29:30;100407.35;;;28.35;47.26
77005;BME280;67261;53.132;18.006;2023-07-30T11:31:57;100408.39;;;28.16;47.17
77005;BME280;67261;53.132;18.006;2023-07-30T11:34:26;100410.26;;;28.02;47.13
77005;BME280;67261;53.132;18.006;2023-07-30T11:36:54;100407.70;;;28.12;46.54
77005;BME280;67261;53.132;18.006;2023-07-30T11:39:23;100407.70;;;28.30;46.64
77005;BME280;67261;53.132;18.006;2023-07-30T11:41:50;100406.71;;;28.44;46.58
77005;BME280;67261;53.132;18.006;2023-07-30T11:44:34;100404.23;;;28.47;46.29
77005;BME280;67261;53.132;18.006;2023-07-30T11:47:00;100405.05;;;28.53;46.11
77005;BME280;67261;53.132;18.006;2023-07-30T11:49:27;100406.45;;;28.56;45.89
77005;BME280;67261;53.132;18.006;2023-07-30T11:52:06;100404.13;;;28.64;46.03
77005;BME280;67261;53.132;18.006;2023-07-30T11:54:33;100401.05;;;28.71;45.76
77005;BME280;67261;53.132;18.006;2023-07-30T11:57:00;100403.33;;;28.76;45.36
77005;BME280;67261;53.132;18.006;2023-07-30T11:59:27;100407.10;;;28.75;45.12
77005;BME280;67261;53.132;18.006;2023-07-30T12:01:53;100403.14;;;28.66;45.35
77005;BME280;67261;53.132;18.006;2023-07-30T12:04:20;100397.81;;;28.58;45.45
77005;BME280;67261;53.132;18.006;2023-07-30T12:06:48;100392.50;;;28.47;45.92
77005;BME280;67261;53.132;18.006;2023-07-30T12:09:20;100391.08;;;28.35;45.83
77005;BME280;67261;53.132;18.006;2023-07-30T12:11:55;100389.29;;;28.11;46.16
77005;BME280;67261;53.132;18.006;2023-07-30T12:14:25;100391.36;;;27.82;46.14
77005;BME280;67261;53.132;18.006;2023-07-30T12:16:57;100388.48;;;27.62;46.12
77005;BME280;67261;53.132;18.006;2023-07-30T12:19:24;100389.04;;;27.61;46.32
77005;BME280;67261;53.132;18.006;2023-07-30T12:21:50;100383.15;;;27.69;46.40
77005;BME280;67261;53.132;18.006;2023-07-30T12:24:17;100376.58;;;27.74;46.20
77005;BME280;67261;53.132;18.006;2023-07-30T12:26:43;100373.36;;;27.74;45.92
77005;BME280;67261;53.132;18.006;2023-07-30T12:29:10;100372.82;;;27.73;45.10
77005;BME280;67261;53.132;18.006;2023-07-30T12:31:36;100366.02;;;27.68;45.42
77005;BME280;67261;53.132;18.006;2023-07-30T12:34:02;100365.69;;;27.70;45.82
77005;BME280;67261;53.132;18.006;2023-07-30T12:36:29;100367.05;;;27.71;45.72
77005;BME280;67261;53.132;18.006;2023-07-30T12:38:55;100365.73;;;27.74;45.49
77005;BME280;67261;53.132;18.006;2023-07-30T12:41:21;100364.04;;;27.74;45.38
77005;BME280;67261;53.132;18.006;2023-07-30T12:43:52;100362.09;;;27.68;45.15